Terminal Aerodrome Forecast
Issued by NWS Pittsburgh, PA

Current Version | Previous Version | Text Only | Print | Product List | Glossary Off
Versions: 1 2 3 4 5 6 7 8 9 10 11 12 13 14 15 16 17 18 19 20 21 22 23 24 25 26 27 28

000
FTUS41 KPBZ 031120
TAFPIT
TAF
KPIT 031120Z 0312/0418 27005KT 6SM BR FEW070
     FM031400 30006KT P6SM SCT040
     FM040500 00000KT 3SM BR SKC
     FM040900 00000KT 1 1/2SM BR SKC=

USA.gov is the U.S. government's official web portal to all federal, state and local government web resources and services.